Decoded Metar for MMTC (TORREON in MEXICO) (IATA:TRC) | Meteo·Mobile Aviation Weather
aviador You're here:

MMTC Decoded Metar

TORREON in MEXICO
Report Time2020-02-22 21:46:00
UTC Time2020-02-22 22:49:51
Flight Rules vfr VFR
Wind030° at 04 kt
W.Decomp.*RWY 08: 2.1 kt HW 3.4 kt LCW
RWY 30: 0.6 kt HW 4.0 kt RCW
Visibility9999 m
Phenomena:N/A
Clouds:Broken 200 Hf
Expected CloudBase > 7,600 ft AGL from Temp-Dew spread
Ceiling20,000 ft
Temp27°C (ISA +19)
Dew Point08°C (30% RH)
Heat Index26.4°C
AAT25.1°C
QNH1019 hPa
Density Alt5,846 ft
Elevation3,688 ft
Report Wrong Elevation
Raw Report
MMTC 222146Z 03004KT 10SM BKN200 27/08 A3009 RMK 8/002=

Extra information for MMTC:More info

Metar Taf Metar & Taf Last 4 Metars F.Rules Stats Wind Profile Meteogram Temp Stats Airport Information Weather charts Add Link Nearby VenuesMetar ALERT Operation Metar Decoded Social comments